createdAt,value
2023-04-07T00:00:04.929Z,8.97
2023-04-07T00:02:41.336Z,7.53
2023-04-07T00:05:10.927Z,8.93
2023-04-07T00:07:48.811Z,8.05
2023-04-07T00:10:25.262Z,7.95
2023-04-07T00:12:54.933Z,8.70
2023-04-07T00:15:23.246Z,7.37
2023-04-07T00:17:51.949Z,7.10
2023-04-07T00:20:20.732Z,7.32
2023-04-07T00:22:49.045Z,7.97
2023-04-07T00:25:17.748Z,7.93
2023-04-07T00:27:46.037Z,6.70
2023-04-07T00:30:16.346Z,7.35
2023-04-07T00:32:45.476Z,6.55
2023-04-07T00:35:13.920Z,6.72
2023-04-07T00:37:42.270Z,6.35
2023-04-07T00:40:11.578Z,6.90
2023-04-07T00:42:39.919Z,7.03
2023-04-07T00:45:10.224Z,6.85
2023-04-07T00:47:40.172Z,7.00
2023-04-07T00:50:10.150Z,7.22
2023-04-07T00:52:38.906Z,7.20
2023-04-07T00:55:08.265Z,6.43
2023-04-07T00:57:36.619Z,6.82
2023-04-07T01:00:07.460Z,6.43
2023-04-07T01:02:43.248Z,5.90
2023-04-07T01:05:17.955Z,6.47
2023-04-07T01:08:00.860Z,6.60
2023-04-07T01:10:37.037Z,6.13
2023-04-07T01:13:25.100Z,6.78
2023-04-07T01:16:02.123Z,6.43
2023-04-07T01:18:36.637Z,6.60
2023-04-07T01:21:09.058Z,6.90
2023-04-07T01:24:00.495Z,6.85
2023-04-07T01:26:31.716Z,6.30
2023-04-07T01:29:36.577Z,6.55
2023-04-07T01:32:08.826Z,7.10
2023-04-07T01:34:39.757Z,7.38
2023-04-07T01:37:08.772Z,8.07
2023-04-07T01:39:38.057Z,6.82
2023-04-07T01:42:07.888Z,8.25
2023-04-07T01:44:37.893Z,7.25
2023-04-07T01:47:08.111Z,7.57
2023-04-07T01:49:38.031Z,7.35
2023-04-07T01:52:07.512Z,7.70
2023-04-07T01:54:36.774Z,7.53
2023-04-07T01:57:05.362Z,6.97
2023-04-07T01:59:33.697Z,7.13
2023-04-07T02:02:03.496Z,7.43
2023-04-07T02:04:39.394Z,8.05
2023-04-07T02:07:16.410Z,7.78
2023-04-07T02:09:51.503Z,8.07
2023-04-07T02:12:20.713Z,6.88
2023-04-07T02:15:02.561Z,7.18
2023-04-07T02:17:34.878Z,8.40
2023-04-07T02:20:08.470Z,7.15
2023-04-07T02:22:39.829Z,7.72
2023-04-07T02:25:27.140Z,6.88
2023-04-07T02:27:57.401Z,7.50
2023-04-07T02:30:26.512Z,8.00
2023-04-07T02:32:54.961Z,7.05
2023-04-07T02:35:25.073Z,7.13
2023-04-07T02:37:53.922Z,7.20
2023-04-07T02:40:22.384Z,7.88
2023-04-07T02:42:50.730Z,6.72
2023-04-07T02:45:19.007Z,7.10
2023-04-07T02:47:47.454Z,8.10
2023-04-07T02:50:19.322Z,6.97
2023-04-07T02:52:49.250Z,7.28
2023-04-07T02:55:18.507Z,6.57
2023-04-07T02:57:47.038Z,6.95
2023-04-07T03:00:32.328Z,6.28
2023-04-07T03:03:06.518Z,6.60
2023-04-07T03:05:38.059Z,6.60
2023-04-07T03:08:10.103Z,6.32
2023-04-07T03:10:39.449Z,6.85
2023-04-07T03:13:09.431Z,6.55
2023-04-07T03:15:39.255Z,7.88
2023-04-07T03:18:08.469Z,7.72
2023-04-07T03:20:37.017Z,7.85
2023-04-07T03:23:13.088Z,7.20
2023-04-07T03:25:42.687Z,6.95
2023-04-07T03:28:13.255Z,7.53
2023-04-07T03:30:42.114Z,7.50
2023-04-07T03:33:11.122Z,7.00
2023-04-07T03:35:39.642Z,7.57
2023-04-07T03:38:08.114Z,7.13
2023-04-07T03:40:39.002Z,6.97
2023-04-07T03:43:12.447Z,7.30
2023-04-07T03:45:41.421Z,6.53
2023-04-07T03:48:12.146Z,6.80
2023-04-07T03:50:49.429Z,6.72
2023-04-07T03:53:20.186Z,6.82
2023-04-07T03:55:50.715Z,6.13
2023-04-07T03:58:36.799Z,6.85
2023-04-07T04:03:36.427Z,6.88
2023-04-07T04:06:18.753Z,7.85
2023-04-07T04:08:47.162Z,7.43
2023-04-07T04:11:17.646Z,8.10
2023-04-07T04:13:55.148Z,7.70
2023-04-07T04:16:23.956Z,6.82
2023-04-07T04:18:54.628Z,6.13
2023-04-07T04:21:24.043Z,6.65
2023-04-07T04:23:53.272Z,6.10
2023-04-07T04:26:25.992Z,6.68
2023-04-07T04:28:57.939Z,6.63
2023-04-07T04:31:27.115Z,5.90
2023-04-07T04:33:55.658Z,5.85
2023-04-07T04:36:26.292Z,5.63
2023-04-07T04:38:59.703Z,5.80
2023-04-07T04:41:29.464Z,5.40
2023-04-07T04:43:58.867Z,5.85
2023-04-07T04:46:28.389Z,5.13
2023-04-07T04:48:56.812Z,5.75
2023-04-07T04:51:27.287Z,5.93
2023-04-07T04:54:03.785Z,5.85
2023-04-07T04:56:33.619Z,6.00
2023-04-07T04:59:02.347Z,6.63
2023-04-07T05:01:43.645Z,6.15
2023-04-07T05:04:16.886Z,6.03
2023-04-07T05:06:52.791Z,6.07
2023-04-07T05:09:24.466Z,5.75
2023-04-07T05:11:54.172Z,6.10
2023-04-07T05:16:57.016Z,5.40
2023-04-07T05:19:29.915Z,6.00
2023-04-07T05:22:04.845Z,5.30
2023-04-07T05:24:40.811Z,5.50
2023-04-07T05:27:10.914Z,6.20
2023-04-07T05:29:40.195Z,5.43
2023-04-07T05:32:13.305Z,5.72
2023-04-07T05:34:42.310Z,6.07
2023-04-07T05:37:11.829Z,6.15
2023-04-07T05:39:40.433Z,5.85
2023-04-07T05:42:12.450Z,6.28
2023-04-07T05:44:41.369Z,4.97
2023-04-07T05:47:11.331Z,5.43
2023-04-07T05:52:15.208Z,6.00
2023-04-07T05:54:48.406Z,5.28
2023-04-07T05:57:20.041Z,5.57
2023-04-07T05:59:50.118Z,6.20
2023-04-07T06:02:19.134Z,6.38
2023-04-07T06:04:49.270Z,5.82
2023-04-07T06:07:19.760Z,6.07
2023-04-07T06:09:48.181Z,5.97
2023-04-07T06:12:17.941Z,5.95
2023-04-07T06:14:53.320Z,7.03
2023-04-07T06:17:23.411Z,6.78
2023-04-07T06:19:51.795Z,5.78
2023-04-07T06:22:20.196Z,5.65
2023-04-07T06:24:48.696Z,5.32
2023-04-07T06:27:18.506Z,5.47
2023-04-07T06:29:49.271Z,5.55
2023-04-07T06:32:17.771Z,5.75
2023-04-07T06:34:46.275Z,6.22
2023-04-07T06:37:15.961Z,5.60
2023-04-07T06:39:45.366Z,5.20
2023-04-07T06:42:13.729Z,5.30
2023-04-07T06:44:52.916Z,5.03
2023-04-07T06:47:21.355Z,5.53
2023-04-07T06:49:49.625Z,5.53
2023-04-07T06:52:17.938Z,5.45
2023-04-07T06:54:46.283Z,5.82
2023-04-07T06:57:14.893Z,5.80
2023-04-07T06:59:43.222Z,5.15
2023-04-07T07:02:13.052Z,5.47
2023-04-07T07:04:41.585Z,6.43
2023-04-07T07:07:09.944Z,5.80
2023-04-07T07:09:38.316Z,5.15
2023-04-07T07:12:07.372Z,6.05
2023-04-07T07:14:35.756Z,4.93
2023-04-07T07:17:04.306Z,5.80
2023-04-07T07:19:34.057Z,5.95
2023-04-07T07:22:04.283Z,5.73
2023-04-07T07:24:34.077Z,5.18
2023-04-07T07:27:03.552Z,5.82
2023-04-07T07:29:31.991Z,5.78
2023-04-07T07:32:00.373Z,6.47
2023-04-07T07:34:28.697Z,5.75
2023-04-07T07:36:59.281Z,5.70
2023-04-07T07:39:28.186Z,7.13
2023-04-07T07:41:56.650Z,5.10
2023-04-07T07:44:25.220Z,6.32
2023-04-07T07:46:53.649Z,5.40
2023-04-07T07:49:22.528Z,6.63
2023-04-07T07:51:50.838Z,6.32
2023-04-07T07:54:20.571Z,5.72
2023-04-07T07:56:48.886Z,5.73
2023-04-07T07:59:17.844Z,5.50
2023-04-07T08:01:46.402Z,4.60
2023-04-07T08:04:14.896Z,5.13
2023-04-07T08:06:43.221Z,6.22
2023-04-07T08:09:11.620Z,5.78
2023-04-07T08:11:41.587Z,6.18
2023-04-07T08:14:10.094Z,4.90
2023-04-07T08:16:38.984Z,4.97
2023-04-07T08:19:07.452Z,5.90
2023-04-07T08:21:35.820Z,5.28
2023-04-07T08:24:04.578Z,5.55
2023-04-07T08:26:33.092Z,5.30
2023-04-07T08:29:02.819Z,5.25
2023-04-07T08:31:31.210Z,6.07
2023-04-07T08:33:59.589Z,6.13
2023-04-07T08:36:28.944Z,5.30
2023-04-07T08:38:57.887Z,5.30
2023-04-07T08:41:35.276Z,5.70
2023-04-07T08:44:05.450Z,5.65
2023-04-07T08:46:35.407Z,6.15
2023-04-07T08:49:05.479Z,5.53
2023-04-07T08:51:34.651Z,5.28
2023-04-07T08:54:10.417Z,5.82
2023-04-07T08:56:41.510Z,5.70
2023-04-07T08:59:15.157Z,5.30
2023-04-07T09:01:43.756Z,5.22
2023-04-07T09:04:12.474Z,5.95
2023-04-07T09:06:40.964Z,5.57
2023-04-07T09:09:09.337Z,4.95
2023-04-07T09:11:40.668Z,4.90
2023-04-07T09:14:09.253Z,5.40
2023-04-07T09:16:40.633Z,5.18
2023-04-07T09:19:09.591Z,5.25
2023-04-07T09:21:53.851Z,5.65
2023-04-07T09:24:24.489Z,4.50
2023-04-07T09:29:22.403Z,5.90
2023-04-07T09:31:55.131Z,5.03
2023-04-07T09:34:28.942Z,5.20
2023-04-07T09:36:58.307Z,5.75
2023-04-07T09:39:27.676Z,5.40
2023-04-07T09:41:56.247Z,5.68
2023-04-07T09:44:25.219Z,5.68
2023-04-07T09:46:57.569Z,4.88
2023-04-07T09:49:27.353Z,5.88
2023-04-07T09:51:58.012Z,4.80
2023-04-07T09:57:06.698Z,5.57
2023-04-07T09:59:38.044Z,6.13
2023-04-07T10:02:09.390Z,6.20
2023-04-07T10:04:39.025Z,6.68
2023-04-07T10:07:08.041Z,6.18
2023-04-07T10:09:36.615Z,5.93
2023-04-07T10:12:06.163Z,5.88
2023-04-07T10:14:35.554Z,5.22
2023-04-07T10:17:05.332Z,5.65
2023-04-07T10:19:37.356Z,6.82
2023-04-07T10:22:07.952Z,6.20
2023-04-07T10:27:21.011Z,5.18
2023-04-07T10:29:52.649Z,5.30
2023-04-07T10:32:21.384Z,5.20
2023-04-07T10:35:01.333Z,5.40
2023-04-07T10:37:29.805Z,5.32
2023-04-07T10:40:29.619Z,6.28
2023-04-07T10:42:58.589Z,5.30
2023-04-07T10:45:59.531Z,5.32
2023-04-07T10:48:33.375Z,6.05
2023-04-07T10:51:19.612Z,5.53
2023-04-07T10:54:29.068Z,6.03
2023-04-07T10:57:13.151Z,5.55
2023-04-07T11:00:04.460Z,5.85
2023-04-07T11:02:35.091Z,5.45
2023-04-07T11:05:04.355Z,5.18
2023-04-07T11:08:02.605Z,5.25
2023-04-07T11:10:31.344Z,5.75
2023-04-07T11:13:06.277Z,5.60
2023-04-07T11:15:38.513Z,5.25
2023-04-07T11:18:19.945Z,5.63
2023-04-07T11:20:52.674Z,5.53
2023-04-07T11:23:25.336Z,6.28
2023-04-07T11:26:02.276Z,6.10
2023-04-07T11:28:31.074Z,4.93
2023-04-07T11:31:00.326Z,6.95
2023-04-07T11:33:34.880Z,5.72
2023-04-07T11:36:04.555Z,4.60
2023-04-07T11:38:38.340Z,6.27
2023-04-07T11:41:13.224Z,5.18
2023-04-07T11:43:42.814Z,5.57
2023-04-07T11:46:13.645Z,5.07
2023-04-07T11:51:18.552Z,5.45
2023-04-07T11:53:48.938Z,5.15
2023-04-07T11:56:18.773Z,5.22
2023-04-07T11:58:50.612Z,5.32
2023-04-07T12:01:19.217Z,5.63
2023-04-07T12:03:59.995Z,5.25
2023-04-07T12:06:35.016Z,5.20
2023-04-07T12:09:05.704Z,5.57
2023-04-07T12:11:34.625Z,5.00
2023-04-07T12:14:04.977Z,5.68
2023-04-07T12:16:33.948Z,4.82
2023-04-07T12:19:02.372Z,5.72
2023-04-07T12:21:31.651Z,5.35
2023-04-07T12:23:59.945Z,6.13
2023-04-07T12:26:30.602Z,5.47
2023-04-07T12:31:33.989Z,5.07
2023-04-07T12:34:02.371Z,4.95
2023-04-07T12:36:30.740Z,5.65
2023-04-07T12:38:59.257Z,4.85
2023-04-07T12:41:29.206Z,5.90
2023-04-07T12:43:57.480Z,5.10
2023-04-07T12:46:25.998Z,4.93
2023-04-07T12:48:54.445Z,4.72
2023-04-07T12:51:22.935Z,5.07
2023-04-07T12:53:51.333Z,5.57
2023-04-07T12:56:19.678Z,4.97
2023-04-07T12:58:49.624Z,4.95
2023-04-07T13:01:18.096Z,5.35
2023-04-07T13:03:47.161Z,5.10
2023-04-07T13:06:15.925Z,5.28
2023-04-07T13:08:44.276Z,6.00
2023-04-07T13:11:12.590Z,5.93
2023-04-07T13:13:40.921Z,5.88
2023-04-07T13:16:11.334Z,6.78
2023-04-07T13:18:39.698Z,5.93
2023-04-07T13:23:54.020Z,6.10
2023-04-07T13:26:22.580Z,5.85
2023-04-07T13:28:50.936Z,5.70
2023-04-07T13:31:22.093Z,6.18
2023-04-07T13:33:50.771Z,5.63
2023-04-07T13:36:21.814Z,5.32
2023-04-07T13:38:51.450Z,5.82
2023-04-07T13:41:19.802Z,6.25
2023-04-07T13:43:48.496Z,6.05
2023-04-07T13:46:27.765Z,7.18
2023-04-07T13:48:58.604Z,6.80
2023-04-07T13:51:28.118Z,5.32
2023-04-07T13:53:56.812Z,5.88
2023-04-07T13:56:25.197Z,6.35
2023-04-07T13:58:54.094Z,6.20
2023-04-07T14:01:22.732Z,5.88
2023-04-07T14:03:51.474Z,6.53
2023-04-07T14:06:22.943Z,6.13
2023-04-07T14:08:51.935Z,5.63
2023-04-07T14:11:20.385Z,5.93
2023-04-07T14:13:49.207Z,5.70
2023-04-07T14:16:18.707Z,5.68
2023-04-07T14:18:47.145Z,6.13
2023-04-07T14:21:15.697Z,5.88
2023-04-07T14:23:45.438Z,5.60
2023-04-07T14:26:14.348Z,6.00
2023-04-07T14:28:42.765Z,5.72
2023-04-07T14:31:15.124Z,5.70
2023-04-07T14:33:43.750Z,6.38
2023-04-07T14:36:12.527Z,6.13
2023-04-07T14:38:40.973Z,5.80
2023-04-07T14:41:11.579Z,6.35
2023-04-07T14:46:09.996Z,5.70
2023-04-07T14:48:39.222Z,5.82
2023-04-07T14:51:13.597Z,6.68
2023-04-07T14:53:43.383Z,5.70
2023-04-07T14:56:13.473Z,6.03
2023-04-07T14:58:41.879Z,6.00
2023-04-07T15:01:10.311Z,6.05
2023-04-07T15:03:39.026Z,6.30
2023-04-07T15:06:13.954Z,6.45
2023-04-07T15:08:42.280Z,6.45
2023-04-07T15:11:12.320Z,7.00
2023-04-07T15:13:40.643Z,5.70
2023-04-07T15:16:11.229Z,6.18
2023-04-07T15:21:09.615Z,6.05
2023-04-07T15:23:38.833Z,5.70
2023-04-07T15:26:07.959Z,6.13
2023-04-07T15:28:37.883Z,5.95
2023-04-07T15:31:08.994Z,6.13
2023-04-07T15:33:38.065Z,6.38
2023-04-07T15:36:07.779Z,6.13
2023-04-07T15:38:36.723Z,6.30
2023-04-07T15:41:05.285Z,5.60
2023-04-07T15:43:34.538Z,6.25
2023-04-07T15:46:04.240Z,6.10
2023-04-07T15:48:32.640Z,6.77
2023-04-07T15:51:00.956Z,6.03
2023-04-07T15:53:29.410Z,6.47
2023-04-07T15:55:57.710Z,7.20
2023-04-07T15:58:26.152Z,6.28
2023-04-07T16:00:54.621Z,5.97
2023-04-07T16:03:24.882Z,6.80
2023-04-07T16:05:53.421Z,6.47
2023-04-07T16:08:21.997Z,6.80
2023-04-07T16:10:50.384Z,6.82
2023-04-07T16:13:18.702Z,6.75
2023-04-07T16:15:47.046Z,6.90
2023-04-07T16:18:16.856Z,6.78
2023-04-07T16:20:46.703Z,6.20
2023-04-07T16:23:15.198Z,6.68
2023-04-07T16:25:43.613Z,7.65
2023-04-07T16:28:11.984Z,6.53
2023-04-07T16:30:40.373Z,6.50
2023-04-07T16:33:08.921Z,6.45
2023-04-07T16:35:37.490Z,7.07
2023-04-07T16:38:07.171Z,7.03
2023-04-07T16:40:35.585Z,7.28
2023-04-07T16:43:03.893Z,6.75
2023-04-07T16:45:32.177Z,7.47
2023-04-07T16:48:00.869Z,6.53
2023-04-07T16:50:29.262Z,7.13
2023-04-07T16:52:58.066Z,6.93
2023-04-07T16:55:27.830Z,8.07
2023-04-07T16:57:56.206Z,8.50
2023-04-07T17:00:24.760Z,7.57
2023-04-07T17:02:53.301Z,6.75
2023-04-07T17:05:21.804Z,7.20
2023-04-07T17:07:50.392Z,7.10
2023-04-07T17:10:18.971Z,7.00
2023-04-07T17:12:55.965Z,6.75
2023-04-07T17:15:24.982Z,6.50
2023-04-07T17:17:53.313Z,7.63
2023-04-07T17:20:22.743Z,7.22
2023-04-07T17:22:51.274Z,8.57
2023-04-07T17:25:19.821Z,8.35
2023-04-07T17:27:49.500Z,8.02
2023-04-07T17:30:18.290Z,7.37
2023-04-07T17:32:46.640Z,7.97
2023-04-07T17:35:14.975Z,8.13
2023-04-07T17:37:43.428Z,7.70
2023-04-07T17:40:12.847Z,8.00
2023-04-07T17:42:41.375Z,7.85
2023-04-07T17:45:11.873Z,8.85
2023-04-07T17:47:40.403Z,7.93
2023-04-07T17:50:10.151Z,7.60
2023-04-07T17:52:38.748Z,9.80
2023-04-07T17:55:09.036Z,8.18
2023-04-07T17:57:37.671Z,8.90
2023-04-07T18:00:07.787Z,8.25
2023-04-07T18:02:43.210Z,9.32
2023-04-07T18:05:12.533Z,8.23
2023-04-07T18:07:41.192Z,7.90
2023-04-07T18:10:11.164Z,8.48
2023-04-07T18:12:40.703Z,8.95
2023-04-07T18:15:10.500Z,8.32
2023-04-07T18:17:39.024Z,8.75
2023-04-07T18:20:10.022Z,10.23
2023-04-07T18:22:38.516Z,10.95
2023-04-07T18:25:08.341Z,10.93
2023-04-07T18:27:36.880Z,10.52
2023-04-07T18:30:06.615Z,10.13
2023-04-07T18:32:34.905Z,11.27
2023-04-07T18:35:03.324Z,10.98
2023-04-07T18:37:33.074Z,10.45
2023-04-07T18:40:01.536Z,10.73
2023-04-07T18:42:29.832Z,11.20
2023-04-07T18:44:58.148Z,11.15
2023-04-07T18:47:27.378Z,11.43
2023-04-07T18:49:57.982Z,11.93
2023-04-07T18:52:27.018Z,11.07
2023-04-07T18:54:57.709Z,12.23
2023-04-07T18:59:54.188Z,13.00
2023-04-07T19:02:22.745Z,11.70
2023-04-07T19:04:51.386Z,12.02
2023-04-07T19:07:19.722Z,10.70
2023-04-07T19:09:51.194Z,10.70
2023-04-07T19:12:20.939Z,11.30
2023-04-07T19:14:49.337Z,9.93
2023-04-07T19:17:17.773Z,10.20
2023-04-07T19:19:46.224Z,10.10
2023-04-07T19:22:14.710Z,11.43
2023-04-07T19:24:43.139Z,10.55
2023-04-07T19:27:12.072Z,10.38
2023-04-07T19:29:42.664Z,9.82
2023-04-07T19:32:11.230Z,10.35
2023-04-07T19:34:39.546Z,10.10
2023-04-07T19:37:07.956Z,10.48
2023-04-07T19:39:36.247Z,9.20
2023-04-07T19:42:04.672Z,10.43
2023-04-07T19:44:33.063Z,10.18
2023-04-07T19:47:02.703Z,9.85
2023-04-07T19:49:31.130Z,10.65
2023-04-07T19:51:59.516Z,10.93
2023-04-07T19:54:27.904Z,11.65
2023-04-07T19:56:56.228Z,11.15
2023-04-07T19:59:24.617Z,11.80
2023-04-07T20:01:53.194Z,12.00
2023-04-07T20:04:23.025Z,11.85
2023-04-07T20:06:51.726Z,12.60
2023-04-07T20:09:20.674Z,11.38
2023-04-07T20:11:49.314Z,12.10
2023-04-07T20:14:17.613Z,11.85
2023-04-07T20:16:46.015Z,10.65
2023-04-07T20:19:14.421Z,10.25
2023-04-07T20:21:44.145Z,11.00
2023-04-07T20:24:13.310Z,10.23
2023-04-07T20:26:41.881Z,10.35
2023-04-07T20:29:10.381Z,10.73
2023-04-07T20:31:38.700Z,10.25
2023-04-07T20:34:06.994Z,11.07
2023-04-07T20:36:35.384Z,11.05
2023-04-07T20:39:05.218Z,11.27
2023-04-07T20:41:33.674Z,11.20
2023-04-07T20:44:02.038Z,11.48
2023-04-07T20:46:30.963Z,11.35
2023-04-07T20:48:59.429Z,10.98
2023-04-07T20:51:28.946Z,10.80
2023-04-07T20:53:57.532Z,11.93
2023-04-07T20:56:28.992Z,11.68
2023-04-07T20:58:57.486Z,11.98
2023-04-07T21:01:25.853Z,11.70
2023-04-07T21:03:54.865Z,11.35
2023-04-07T21:06:23.327Z,11.43
2023-04-07T21:08:51.679Z,10.82
2023-04-07T21:11:20.180Z,11.00
2023-04-07T21:13:50.044Z,11.85
2023-04-07T21:16:19.088Z,12.20
2023-04-07T21:18:47.846Z,11.15
2023-04-07T21:21:16.690Z,11.75
2023-04-07T21:23:45.077Z,11.90
2023-04-07T21:26:13.578Z,10.60
2023-04-07T21:28:42.153Z,9.70
2023-04-07T21:31:11.884Z,10.75
2023-04-07T21:33:40.336Z,10.60
2023-04-07T21:36:09.020Z,10.60
2023-04-07T21:38:37.379Z,11.20
2023-04-07T21:41:05.813Z,12.00
2023-04-07T21:43:34.644Z,11.23
2023-04-07T21:46:03.053Z,11.05
2023-04-07T21:48:34.696Z,11.77
2023-04-07T21:51:03.090Z,10.98
2023-04-07T21:53:32.028Z,11.05
2023-04-07T21:56:00.455Z,11.73
2023-04-07T21:58:28.820Z,11.07
2023-04-07T22:00:57.248Z,10.95
2023-04-07T22:03:25.825Z,12.00
2023-04-07T22:05:56.179Z,12.13
2023-04-07T22:08:24.615Z,11.25
2023-04-07T22:10:53.465Z,11.82
2023-04-07T22:13:21.816Z,12.23
2023-04-07T22:15:50.252Z,11.95
2023-04-07T22:18:20.793Z,12.60
2023-04-07T22:20:50.375Z,14.48
2023-04-07T22:23:20.099Z,11.50
2023-04-07T22:25:50.265Z,12.10
2023-04-07T22:28:18.778Z,11.90
2023-04-07T22:30:47.285Z,12.60
2023-04-07T22:33:15.744Z,13.80
2023-04-07T22:35:44.141Z,12.45
2023-04-07T22:38:13.563Z,12.15
2023-04-07T22:40:43.280Z,11.10
2023-04-07T22:43:11.813Z,12.73
2023-04-07T22:45:40.119Z,12.82
2023-04-07T22:48:08.748Z,13.05
2023-04-07T22:50:37.406Z,14.32
2023-04-07T22:53:07.295Z,13.25
2023-04-07T22:55:36.228Z,13.10
2023-04-07T22:58:06.148Z,12.30
2023-04-07T23:00:34.480Z,13.15
2023-04-07T23:03:02.973Z,13.93
2023-04-07T23:05:31.485Z,14.02
2023-04-07T23:07:59.855Z,15.05
2023-04-07T23:10:28.336Z,14.40
2023-04-07T23:12:56.700Z,14.85
2023-04-07T23:15:27.313Z,15.45
2023-04-07T23:17:56.038Z,14.90
2023-04-07T23:20:24.422Z,15.93
2023-04-07T23:22:52.649Z,16.77
2023-04-07T23:25:22.839Z,15.32
2023-04-07T23:27:51.364Z,16.20
2023-04-07T23:30:19.741Z,17.30
2023-04-07T23:32:49.404Z,17.95
2023-04-07T23:35:18.000Z,17.75
2023-04-07T23:37:46.326Z,18.70
2023-04-07T23:40:15.512Z,18.60
2023-04-07T23:42:43.801Z,18.67
2023-04-07T23:45:12.984Z,20.08
2023-04-07T23:47:41.555Z,20.48
2023-04-07T23:50:12.272Z,19.75
2023-04-07T23:55:10.715Z,20.15
2023-04-07T23:57:39.206Z,21.83
